Time;durP1;ratioP1;P1;durP2;ratioP2;P2;SDS_P1;SDS_P2;PMS_P1;PMS_P2;Temp;Humidity;BMP_temperature;BMP_pressure;BME280_temperature;BME280_humidity;BME280_pressure;Samples;Min_cycle;Max_cycle;Signal;HPM_P1;HPM_P2
2021/03/15 00:00:30;;;;;;;;;;;;;;;4.44;100.00;100467.13;5029751;28;20011;-83
2021/03/15 00:02:56;;;;;;;;;;;;;;;4.44;100.00;100454.69;5030692;28;20016;-82
2021/03/15 00:05:22;;;;;;;;;;;;;;;4.44;100.00;100460.00;5045086;28;19932;-83
2021/03/15 00:07:47;;;;;;;;;;;;;;;4.44;100.00;100457.34;5028983;28;20019;-86
2021/03/15 00:10:13;;;;;;;;;;;;;;;4.43;100.00;100455.66;5043974;28;20008;-82
2021/03/15 00:12:41;;;;;;;;;;;;;;;4.41;100.00;100449.63;5030484;28;19921;-84
2021/03/15 00:15:07;;;;;;;;;;;;;;;4.42;100.00;100451.31;5024625;28;19996;-84
2021/03/15 00:17:32;;;;;;;;;;;;;;;4.43;100.00;100450.34;5009698;28;20012;-86
2021/03/15 00:19:57;;;;;;;;;;;;;;;4.44;100.00;100451.19;5019761;28;19928;-86
2021/03/15 00:22:23;;;;;;;;;;;;;;;4.42;100.00;100456.63;5011195;28;20015;-87
2021/03/15 00:24:48;;;;;;;;;;;;;;;4.41;100.00;100446.97;5027838;28;19928;-81
2021/03/15 00:27:13;;;;;;;;;;;;;;;4.42;100.00;100453.13;5028643;28;20335;-83
2021/03/15 00:29:38;;;;;;;;;;;;;;;4.41;100.00;100449.63;5041405;28;19948;-84
2021/03/15 00:32:04;;;;;;;;;;;;;;;4.41;100.00;100452.28;5023438;28;19928;-86
2021/03/15 00:34:33;;;;;;;;;;;;;;;4.43;100.00;100460.13;5000318;28;20305;-83
2021/03/15 00:36:58;;;;;;;;;;;;;;;4.42;100.00;100442.50;5010265;28;20510;-86
2021/03/15 00:39:23;;;;;;;;;;;;;;;4.40;100.00;100444.44;5000843;28;19964;-87
2021/03/15 00:41:49;;;;;;;;;;;;;;;4.36;100.00;100451.00;5001099;28;21816;-80
2021/03/15 00:44:14;;;;;;;;;;;;;;;4.37;100.00;100450.03;5041447;28;19928;-86
2021/03/15 00:46:40;;;;;;;;;;;;;;;4.39;100.00;100448.09;5025309;28;19921;-89
2021/03/15 00:49:05;;;;;;;;;;;;;;;4.38;100.00;100446.41;5022093;28;19925;-87
2021/03/15 00:51:31;;;;;;;;;;;;;;;4.37;100.00;100445.53;5016395;28;19929;-85
2021/03/15 00:53:56;;;;;;;;;;;;;;;4.38;100.00;100446.41;5029517;28;19921;-83
2021/03/15 00:56:21;;;;;;;;;;;;;;;4.36;100.00;100443.88;5018498;28;20025;-83
2021/03/15 00:58:46;;;;;;;;;;;;;;;4.36;100.00;100440.38;4988826;28;19917;-83
2021/03/15 01:01:16;;;;;;;;;;;;;;;4.35;100.00;100436.06;5014747;28;19921;-82
2021/03/15 01:03:41;;;;;;;;;;;;;;;4.34;100.00;100423.72;5014007;28;19921;-83
2021/03/15 01:06:09;;;;;;;;;;;;;;;4.33;100.00;100430.84;5006351;28;19917;-84
2021/03/15 01:08:35;;;;;;;;;;;;;;;4.32;100.00;100420.38;4995437;28;20433;-83
2021/03/15 01:11:00;;;;;;;;;;;;;;;4.30;100.00;100420.50;5007010;28;19921;-88
2021/03/15 01:13:25;;;;;;;;;;;;;;;4.31;100.00;100427.47;5011161;28;20016;-82
2021/03/15 01:15:50;;;;;;;;;;;;;;;4.30;100.00;100424.00;5029650;28;19929;-85
2021/03/15 01:18:16;;;;;;;;;;;;;;;4.26;100.00;100421.75;5007202;28;20366;-84
2021/03/15 01:20:41;;;;;;;;;;;;;;;4.24;100.00;100423.69;5025413;28;19925;-86
2021/03/15 01:23:06;;;;;;;;;;;;;;;4.22;100.00;100421.16;5026636;28;20001;-82
2021/03/15 01:25:33;;;;;;;;;;;;;;;4.20;100.00;100420.47;5025367;28;19971;-80
2021/03/15 01:27:58;;;;;;;;;;;;;;;4.19;100.00;100415.25;5029201;28;20162;-82
2021/03/15 01:30:26;;;;;;;;;;;;;;;4.19;100.00;100421.41;5041824;28;20457;-85
2021/03/15 01:32:51;;;;;;;;;;;;;;;4.19;100.00;100412.63;5027417;28;19940;-82
2021/03/15 01:35:16;;;;;;;;;;;;;;;4.16;100.00;100416.38;5025879;28;20383;-83
2021/03/15 01:37:41;;;;;;;;;;;;;;;4.15;100.00;100409.38;5017658;28;19954;-84
2021/03/15 01:40:07;;;;;;;;;;;;;;;4.15;100.00;100409.38;5007449;28;19921;-83
2021/03/15 01:42:32;;;;;;;;;;;;;;;4.13;100.00;100405.19;5027598;28;19923;-82
2021/03/15 01:44:57;;;;;;;;;;;;;;;4.12;100.00;100404.34;5029401;28;19917;-84
2021/03/15 01:47:25;;;;;;;;;;;;;;;4.11;100.00;100396.50;5029074;28;19921;-85
2021/03/15 01:49:50;;;;;;;;;;;;;;;4.11;100.00;100391.19;5022173;28;19925;-85
2021/03/15 01:52:15;;;;;;;;;;;;;;;4.12;100.00;100393.72;5028742;28;19921;-88
2021/03/15 01:54:41;;;;;;;;;;;;;;;4.09;100.00;100395.81;5010241;28;20380;-83
2021/03/15 01:57:06;;;;;;;;;;;;;;;4.07;100.00;100385.28;5030361;28;19921;-84
2021/03/15 01:59:31;;;;;;;;;;;;;;;4.07;100.00;100390.63;5024956;28;19921;-84
2021/03/15 02:01:57;;;;;;;;;;;;;;;4.06;100.00;100397.75;5028726;28;20383;-86
2021/03/15 02:04:26;;;;;;;;;;;;;;;4.04;100.00;100385.56;5025675;28;20284;-86
2021/03/15 02:06:52;;;;;;;;;;;;;;;4.05;100.00;100381.94;5020358;28;19921;-82
2021/03/15 02:09:17;;;;;;;;;;;;;;;4.05;100.00;100381.94;5026856;28;19927;-83
2021/03/15 02:12:01;;;;;;;;;;;;;;;4.05;100.00;100381.94;5026120;28;19917;-85
2021/03/15 02:14:32;;;;;;;;;;;;;;;4.05;100.00;100382.75;5008332;28;20055;-86
2021/03/15 02:17:08;;;;;;;;;;;;;;;4.03;100.00;100373.28;5014994;28;20295;-80
2021/03/15 02:19:52;;;;;;;;;;;;;;;4.04;100.00;100374.94;5022319;28;20016;-83
2021/03/15 02:22:28;;;;;;;;;;;;;;;4.02;100.00;100359.13;5009309;28;20008;-82
2021/03/15 02:24:56;;;;;;;;;;;;;;;4.01;100.00;100357.47;5027421;28;19961;-82
2021/03/15 02:27:57;;;;;;;;;;;;;;;4.00;100.00;100369.06;5027797;28;19921;-85
2021/03/15 02:30:25;;;;;;;;;;;;;;;3.99;100.00;100358.56;4973503;28;19933;-85
2021/03/15 02:32:50;;;;;;;;;;;;;;;3.98;100.00;100359.56;4989436;28;20308;-87
2021/03/15 02:35:17;;;;;;;;;;;;;;;3.97;100.00;100360.50;5040612;28;19921;-88
2021/03/15 02:37:45;;;;;;;;;;;;;;;3.98;100.00;100359.56;5002246;28;20516;-83
2021/03/15 02:40:13;;;;;;;;;;;;;;;3.97;100.00;100364.03;5005977;28;19921;-86
2021/03/15 02:42:42;;;;;;;;;;;;;;;3.97;100.00;100363.16;5034562;28;19921;-88
2021/03/15 02:45:08;;;;;;;;;;;;;;;3.95;100.00;100370.44;5023119;28;19918;-88
2021/03/15 02:47:37;;;;;;;;;;;;;;;3.97;100.00;100368.47;5008871;28;19932;-84
2021/03/15 02:50:04;;;;;;;;;;;;;;;3.96;100.00;100366.78;5025312;28;19928;-83
2021/03/15 02:52:31;;;;;;;;;;;;;;;3.94;100.00;100361.63;5014261;28;19929;-87
2021/03/15 02:54:57;;;;;;;;;;;;;;;3.91;100.00;100369.84;5025777;28;19925;-87
2021/03/15 02:57:23;;;;;;;;;;;;;;;3.92;100.00;100368.03;5027760;28;19923;-83
2021/03/15 02:59:49;;;;;;;;;;;;;;;3.92;100.00;100365.38;5025680;28;19925;-85
2021/03/15 03:02:15;;;;;;;;;;;;;;;3.93;100.00;100375.84;5027305;28;20291;-83
2021/03/15 03:04:43;;;;;;;;;;;;;;;3.91;100.00;100371.66;5023641;28;19921;-83
2021/03/15 03:07:08;;;;;;;;;;;;;;;3.89;100.00;100365.66;5028628;28;20362;-85
2021/03/15 03:09:35;;;;;;;;;;;;;;;3.90;100.00;100372.63;5026793;28;19925;-86
2021/03/15 03:12:01;;;;;;;;;;;;;;;3.90;100.00;100362.00;5028318;28;19918;-82
2021/03/15 03:14:27;;;;;;;;;;;;;;;3.90;100.00;100369.97;5028484;28;20023;-81
2021/03/15 03:16:54;;;;;;;;;;;;;;;3.87;100.00;100372.91;5011404;28;19967;-81
2021/03/15 03:19:19;;;;;;;;;;;;;;;3.81;100.00;100377.75;5004559;28;19944;-88
2021/03/15 03:21:46;;;;;;;;;;;;;;;3.81;100.00;100372.44;5019626;28;19975;-87
2021/03/15 03:24:13;;;;;;;;;;;;;;;3.83;100.00;100369.66;5020213;28;19960;-86
2021/03/15 03:26:38;;;;;;;;;;;;;;;3.83;100.00;100364.38;4998881;28;20303;-82
2021/03/15 03:29:06;;;;;;;;;;;;;;;3.81;100.00;100368.94;5003534;28;19934;-85
2021/03/15 03:31:32;;;;;;;;;;;;;;;3.82;100.00;100371.47;5019726;28;19925;-85
2021/03/15 03:34:01;;;;;;;;;;;;;;;3.80;100.00;100368.13;5022320;28;19921;-85
2021/03/15 03:36:27;;;;;;;;;;;;;;;3.80;100.00;100373.44;5027360;28;19961;-83
2021/03/15 03:38:53;;;;;;;;;;;;;;;3.83;100.00;100381.13;5032493;28;20421;-84
2021/03/15 03:41:18;;;;;;;;;;;;;;;3.81;100.00;100383.06;5042869;28;19940;-83
2021/03/15 03:43:44;;;;;;;;;;;;;;;3.81;100.00;100379.56;5014924;28;20614;-86
2021/03/15 03:46:11;;;;;;;;;;;;;;;3.84;100.00;100387.28;5019327;28;20008;-82
2021/03/15 03:48:37;;;;;;;;;;;;;;;3.84;100.00;100385.44;5001753;28;19932;-80
2021/03/15 03:51:03;;;;;;;;;;;;;;;3.83;100.00;100388.25;5020614;28;20340;-85
2021/03/15 03:53:31;;;;;;;;;;;;;;;3.83;100.00;100383.78;5025913;28;19917;-84
2021/03/15 03:56:12;;;;;;;;;;;;;;;3.83;100.00;100381.13;5024961;28;20015;-83
2021/03/15 03:58:57;;;;;;;;;;;;;;;3.83;100.00;100380.28;5013409;28;19921;-85
2021/03/15 04:01:31;;;;;;;;;;;;;;;3.83;100.00;100389.09;5021665;28;19929;-84
2021/03/15 04:03:58;;;;;;;;;;;;;;;3.82;100.00;100392.69;5017896;28;19929;-85
2021/03/15 04:06:25;;;;;;;;;;;;;;;3.84;100.00;100395.22;5020422;28;19921;-85
2021/03/15 04:08:57;;;;;;;;;;;;;;;3.82;100.00;100392.69;5014616;28;20403;-83
2021/03/15 04:11:25;;;;;;;;;;;;;;;3.81;100.00;100399.00;5035637;28;19944;-87
2021/03/15 04:13:53;;;;;;;;;;;;;;;3.80;100.00;100407.94;5013707;28;20379;-82
2021/03/15 04:16:19;;;;;;;;;;;;;;;3.80;100.00;100410.59;5022843;28;19953;-85
2021/03/15 04:18:48;;;;;;;;;;;;;;;3.81;100.00;100412.25;5037824;28;20019;-83
2021/03/15 04:21:18;;;;;;;;;;;;;;;3.80;100.00;100420.38;5018102;28;19928;-84
2021/03/15 04:23:47;;;;;;;;;;;;;;;3.82;100.00;100421.91;5019426;28;19925;-86
2021/03/15 04:26:12;;;;;;;;;;;;;;;3.82;100.00;100427.19;5035041;28;19932;-80
2021/03/15 04:28:38;;;;;;;;;;;;;;;3.83;100.00;100436.88;5001803;28;19952;-81
2021/03/15 04:31:05;;;;;;;;;;;;;;;3.82;100.00;100431.69;5022688;28;19921;-85
2021/03/15 04:33:30;;;;;;;;;;;;;;;3.82;100.00;100434.31;5021964;28;19929;-83
2021/03/15 04:35:56;;;;;;;;;;;;;;;3.82;100.00;100424.56;5022548;28;19932;-84
2021/03/15 04:38:22;;;;;;;;;;;;;;;3.78;100.00;100435.56;5020870;28;19925;-87
2021/03/15 04:40:48;;;;;;;;;;;;;;;3.78;100.00;100439.06;5020516;28;19929;-83
2021/03/15 04:43:14;;;;;;;;;;;;;;;3.79;100.00;100438.06;5022669;28;21861;-85
2021/03/15 04:45:43;;;;;;;;;;;;;;;3.79;100.00;100446.03;5039328;28;19925;-88
2021/03/15 04:48:09;;;;;;;;;;;;;;;3.82;100.00;100444.94;5007242;28;19929;-83
2021/03/15 04:50:34;;;;;;;;;;;;;;;3.82;100.00;100451.09;5022015;28;19933;-83
2021/03/15 04:53:02;;;;;;;;;;;;;;;3.81;100.00;100448.59;5035938;28;20415;-83
2021/03/15 04:55:28;;;;;;;;;;;;;;;3.78;100.00;100455.00;5021545;28;19928;-85
2021/03/15 04:57:55;;;;;;;;;;;;;;;3.80;100.00;100450.41;5003676;28;20387;-84
2021/03/15 05:00:21;;;;;;;;;;;;;;;3.80;100.00;100453.06;5018938;28;19928;-84
2021/03/15 05:02:47;;;;;;;;;;;;;;;3.80;100.00;100455.72;5024903;28;20302;-82
2021/03/15 05:05:14;;;;;;;;;;;;;;;3.77;100.00;100455.97;5021261;28;19928;-83
2021/03/15 05:07:41;;;;;;;;;;;;;;;3.74;100.00;100458.00;5019992;28;19929;-87
2021/03/15 05:10:07;;;;;;;;;;;;;;;3.68;100.00;100451.41;5023569;28;19934;-84
2021/03/15 05:12:34;;;;;;;;;;;;;;;3.66;100.00;100456.03;5036374;28;20442;-84
2021/03/15 05:14:59;;;;;;;;;;;;;;;3.64;100.00;100459.78;5025622;28;19952;-83
2021/03/15 05:17:25;;;;;;;;;;;;;;;3.60;100.00;100467.16;5042674;28;19925;-82
2021/03/15 05:19:51;;;;;;;;;;;;;;;3.57;100.00;100489.47;5024452;28;19925;-82
2021/03/15 05:22:16;;;;;;;;;;;;;;;3.56;100.00;100476.31;5026548;28;19925;-85
2021/03/15 05:24:43;;;;;;;;;;;;;;;3.59;100.00;100494.63;5002780;28;19921;-80
2021/03/15 05:27:09;;;;;;;;;;;;;;;3.60;100.00;100491.88;5005923;28;19949;-87
2021/03/15 05:29:38;;;;;;;;;;;;;;;3.62;100.00;100481.13;5005346;28;20391;-89
2021/03/15 05:32:05;;;;;;;;;;;;;;;3.63;100.00;100482.81;5016908;28;19929;-86
2021/03/15 05:34:31;;;;;;;;;;;;;;;3.64;100.00;100484.50;5018721;28;19932;-85
2021/03/15 05:36:57;;;;;;;;;;;;;;;3.65;100.00;100480.84;5012048;28;20063;-83
2021/03/15 05:39:24;;;;;;;;;;;;;;;3.65;100.00;100486.16;5022621;28;20356;-86
2021/03/15 05:41:59;;;;;;;;;;;;;;;3.67;100.00;100492.19;5026412;28;19924;-87
2021/03/15 05:44:39;;;;;;;;;;;;;;;3.69;100.00;100492.09;5023384;28;20441;-87
2021/03/15 05:47:23;;;;;;;;;;;;;;;3.68;100.00;100509.78;5014512;28;20380;-87
2021/03/15 05:50:07;;;;;;;;;;;;;;;3.70;100.00;100507.84;5026368;28;19959;-88
2021/03/15 05:52:32;;;;;;;;;;;;;;;3.71;100.00;100498.09;5008011;28;19918;-81
2021/03/15 05:55:00;;;;;;;;;;;;;;;3.72;100.00;100513.91;5008000;28;19957;-81
2021/03/15 05:57:46;;;;;;;;;;;;;;;3.75;100.00;100516.28;4991492;28;19976;-83
2021/03/15 06:00:32;;;;;;;;;;;;;;;3.77;100.00;100505.53;5022145;28;19933;-84
2021/03/15 06:03:08;;;;;;;;;;;;;;;3.78;100.00;100504.59;5026731;28;19919;-84
2021/03/15 06:05:35;;;;;;;;;;;;;;;3.78;100.00;100507.25;5026454;28;20400;-82
2021/03/15 06:08:00;;;;;;;;;;;;;;;3.79;100.00;100511.56;5018629;28;20376;-88
2021/03/15 06:10:28;;;;;;;;;;;;;;;3.78;100.00;100507.25;5012940;28;19949;-87
2021/03/15 06:13:00;;;;;;;;;;;;;;;3.77;100.00;100508.19;5003219;28;20067;-82
2021/03/15 06:15:36;;;;;;;;;;;;;;;3.77;100.00;100505.53;5004972;28;20372;-84
2021/03/15 06:18:06;;;;;;;;;;;;;;;3.77;100.00;100503.75;5021381;28;20423;-85
2021/03/15 06:20:32;;;;;;;;;;;;;;;3.73;100.00;100509.41;5029574;28;19917;-85
2021/03/15 06:22:58;;;;;;;;;;;;;;;3.72;100.00;100518.38;5025681;28;20011;-87
2021/03/15 06:25:24;;;;;;;;;;;;;;;3.69;100.00;100511.50;5023874;28;19936;-83
2021/03/15 06:27:50;;;;;;;;;;;;;;;3.68;100.00;100512.44;5002146;28;19921;-83
2021/03/15 06:30:15;;;;;;;;;;;;;;;3.67;100.00;100513.44;5021731;28;20405;-87
2021/03/15 06:32:42;;;;;;;;;;;;;;;3.67;100.00;100516.06;5020320;28;19926;-82
2021/03/15 06:35:08;;;;;;;;;;;;;;;3.68;100.00;100516.91;5019549;28;19921;-85
2021/03/15 06:37:34;;;;;;;;;;;;;;;3.71;100.00;100529.94;5017116;28;19928;-85
2021/03/15 06:40:01;;;;;;;;;;;;;;;3.73;100.00;100533.31;5021211;28;19925;-87
2021/03/15 06:42:30;;;;;;;;;;;;;;;3.76;100.00;100539.19;5019534;28;20000;-86
2021/03/15 06:44:55;;;;;;;;;;;;;;;3.79;100.00;100552.22;5006691;28;20016;-82
2021/03/15 06:47:20;;;;;;;;;;;;;;;3.81;100.00;100546.78;5004535;28;20394;-83
2021/03/15 06:49:45;;;;;;;;;;;;;;;3.81;100.00;100544.97;5020615;28;19929;-83
2021/03/15 06:52:11;;;;;;;;;;;;;;;3.84;100.00;100544.72;5002716;28;19975;-84
2021/03/15 06:54:36;;;;;;;;;;;;;;;3.88;100.00;100550.63;5021750;28;19921;-83
2021/03/15 06:57:15;;;;;;;;;;;;;;;3.91;100.00;100549.53;5025293;28;19921;-88
2021/03/15 06:59:44;;;;;;;;;;;;;;;3.93;100.00;100552.91;5003797;28;20004;-81
2021/03/15 07:02:09;;;;;;;;;;;;;;;3.97;100.00;100554.31;5027451;28;19979;-81
2021/03/15 07:04:34;;;;;;;;;;;;;;;4.00;100.00;100564.69;5016075;28;19926;-86
2021/03/15 07:07:02;;;;;;;;;;;;;;;4.04;100.00;100566.97;5003011;28;19928;-86
2021/03/15 07:09:32;;;;;;;;;;;;;;;4.08;100.00;100575.50;5001581;28;19925;-84
2021/03/15 07:12:02;;;;;;;;;;;;;;;4.08;100.00;100564.88;5023637;28;20299;-82
2021/03/15 07:14:27;;;;;;;;;;;;;;;4.13;100.00;100577.78;5025257;28;19925;-83
2021/03/15 07:16:59;;;;;;;;;;;;;;;4.15;100.00;100578.53;5018653;28;19925;-81
2021/03/15 07:19:25;;;;;;;;;;;;;;;4.17;100.00;100577.44;5021437;28;19971;-87
2021/03/15 07:21:50;;;;;;;;;;;;;;;4.19;100.00;100582.59;5026650;28;19918;-84
2021/03/15 07:24:16;;;;;;;;;;;;;;;4.23;100.00;100584.00;5025254;28;19921;-83
2021/03/15 07:26:45;;;;;;;;;;;;;;;4.24;100.00;100585.72;5030567;28;19925;-84
2021/03/15 07:29:15;;;;;;;;;;;;;;;4.27;100.00;100585.47;5026230;28;19925;-85
2021/03/15 07:31:44;;;;;;;;;;;;;;;4.29;100.00;100589.66;5002461;28;19921;-82
2021/03/15 07:34:11;;;;;;;;;;;;;;;4.33;100.00;100587.59;5017811;28;19925;-85
2021/03/15 07:36:46;;;;;;;;;;;;;;;4.36;100.00;100590.00;5017952;28;20312;-87
2021/03/15 07:39:12;;;;;;;;;;;;;;;4.38;100.00;100593.38;5010456;28;19921;-83
2021/03/15 07:41:38;;;;;;;;;;;;;;;4.45;100.00;100594.53;5025022;28;19928;-83
2021/03/15 07:44:23;;;;;;;;;;;;;;;4.50;100.00;100604.78;5026363;28;20426;-87
2021/03/15 07:46:50;;;;;;;;;;;;;;;4.55;100.00;100613.22;5023947;28;19925;-82
2021/03/15 07:49:21;;;;;;;;;;;;;;;4.57;100.00;100611.25;5007310;28;20411;-84
2021/03/15 07:51:50;;;;;;;;;;;;;;;4.61;100.00;100610.03;5025571;28;19986;-84
2021/03/15 07:54:21;;;;;;;;;;;;;;;4.66;100.00;100621.13;5009153;28;19921;-82
2021/03/15 07:56:47;;;;;;;;;;;;;;;4.68;100.00;100624.47;5022572;28;19970;-87
2021/03/15 07:59:13;;;;;;;;;;;;;;;4.72;100.00;100625.91;4998684;28;20020;-83
2021/03/15 08:01:39;;;;;;;;;;;;;;;4.75;100.00;100625.66;5027184;28;19918;-85
2021/03/15 08:04:04;;;;;;;;;;;;;;;4.79;100.00;100620.91;5027427;28;19921;-85
2021/03/15 08:06:31;;;;;;;;;;;;;;;4.80;100.00;100635.88;5004401;28;19929;-84
2021/03/15 08:08:56;;;;;;;;;;;;;;;4.86;100.00;100638.03;5024835;28;19928;-85
2021/03/15 08:11:21;;;;;;;;;;;;;;;4.87;100.00;100639.72;5021109;28;19928;-82
2021/03/15 08:13:48;;;;;;;;;;;;;;;4.90;100.00;100649.25;5019413;28;19922;-84
2021/03/15 08:16:14;;;;;;;;;;;;;;;4.96;100.00;100636.25;5011296;28;20007;-86
2021/03/15 08:18:44;;;;;;;;;;;;;;;5.00;100.00;100650.13;5001923;28;19925;-81
2021/03/15 08:21:11;;;;;;;;;;;;;;;5.02;100.00;100652.66;5009564;28;19921;-85
2021/03/15 08:23:41;;;;;;;;;;;;;;;5.08;100.00;100658.28;5003780;28;19950;-83
2021/03/15 08:26:08;;;;;;;;;;;;;;;5.09;100.00;100653.81;5026220;28;19921;-82
2021/03/15 08:28:34;;;;;;;;;;;;;;;5.12;100.00;100665.06;5029227;28;20295;-83
2021/03/15 08:31:17;;;;;;;;;;;;;;;5.12;100.00;100664.19;5029195;28;19940;-83
2021/03/15 08:33:43;;;;;;;;;;;;;;;5.16;100.00;100668.28;5026534;28;19925;-84
2021/03/15 08:36:09;;;;;;;;;;;;;;;5.22;100.00;100665.09;5023664;28;19925;-84
2021/03/15 08:38:34;;;;;;;;;;;;;;;5.27;100.00;100668.19;5029804;28;19940;-87
2021/03/15 08:41:10;;;;;;;;;;;;;;;5.29;100.00;100658.25;5008479;28;20004;-81
2021/03/15 08:43:36;;;;;;;;;;;;;;;5.42;100.00;100652.72;5017099;28;20379;-82
2021/03/15 08:46:05;;;;;;;;;;;;;;;5.51;100.00;100659.88;5009522;28;20299;-85
2021/03/15 08:48:33;;;;;;;;;;;;;;;5.57;100.00;100666.47;5025975;28;20024;-81
2021/03/15 08:50:59;;;;;;;;;;;;;;;5.62;100.00;100662.44;5031967;28;19996;-84
2021/03/15 08:53:36;;;;;;;;;;;;;;;5.67;100.00;100659.38;5032228;28;19928;-86
2021/03/15 08:56:01;;;;;;;;;;;;;;;5.68;100.00;100655.72;5023705;28;19926;-83
2021/03/15 08:58:36;;;;;;;;;;;;;;;5.73;100.00;100663.31;5014446;28;19925;-85
2021/03/15 09:01:06;;;;;;;;;;;;;;;5.74;100.00;100662.34;5013921;28;19929;-82
2021/03/15 09:03:46;;;;;;;;;;;;;;;5.77;100.00;100667.38;5004405;28;19944;-85
2021/03/15 09:06:11;;;;;;;;;;;;;;;5.81;100.00;100674.13;4994079;28;19926;-82
2021/03/15 09:09:04;;;;;;;;;;;;;;;5.79;100.00;100676.09;5015934;28;19924;-85
2021/03/15 09:11:39;;;;;;;;;;;;;;;5.79;100.00;100668.09;5017709;28;19930;-83
2021/03/15 09:14:31;;;;;;;;;;;;;;;5.82;100.00;100657.19;5027194;28;19928;-83
2021/03/15 09:16:57;;;;;;;;;;;;;;;5.80;100.00;100691.91;5030751;28;19917;-81
2021/03/15 09:19:24;;;;;;;;;;;;;;;5.79;100.00;100679.59;5033132;28;19916;-84
2021/03/15 09:21:51;;;;;;;;;;;;;;;5.80;99.75;100683.09;5006607;28;19991;-82
2021/03/15 09:24:36;;;;;;;;;;;;;;;5.84;100.00;100677.38;5024245;28;20290;-84
2021/03/15 09:27:02;;;;;;;;;;;;;;;5.87;99.97;100686.91;4987137;28;19922;-86
2021/03/15 09:29:30;;;;;;;;;;;;;;;5.88;98.53;100683.25;5016038;28;20328;-83
2021/03/15 09:31:59;;;;;;;;;;;;;;;5.98;99.22;100685.97;5012495;28;19925;-85
2021/03/15 09:34:25;;;;;;;;;;;;;;;6.04;98.39;100696.94;5028207;28;19931;-82
2021/03/15 09:36:51;;;;;;;;;;;;;;;6.15;98.36;100684.44;5025019;28;19992;-86
2021/03/15 09:39:18;;;;;;;;;;;;;;;6.16;96.90;100681.66;5031179;28;19967;-84
2021/03/15 09:41:46;;;;;;;;;;;;;;;6.20;96.35;100687.56;5024578;28;19917;-84
2021/03/15 09:44:11;;;;;;;;;;;;;;;6.23;95.71;100693.44;5022642;28;19975;-85
2021/03/15 09:46:36;;;;;;;;;;;;;;;6.24;95.16;100695.16;5022639;28;19917;-81
2021/03/15 09:49:01;;;;;;;;;;;;;;;6.28;94.37;100695.69;5020275;28;20354;-87
2021/03/15 09:51:27;;;;;;;;;;;;;;;6.32;93.57;100705.94;5029247;28;20399;-85
2021/03/15 09:53:55;;;;;;;;;;;;;;;6.36;94.57;100700.31;5025147;28;19917;-86
2021/03/15 09:56:23;;;;;;;;;;;;;;;6.39;96.27;100703.56;5016216;28;19928;-82
2021/03/15 09:58:48;;;;;;;;;;;;;;;6.26;96.66;100709.16;5028799;28;19920;-82
2021/03/15 10:01:14;;;;;;;;;;;;;;;6.08;97.73;100716.16;5021685;28;19917;-82
2021/03/15 10:03:39;;;;;;;;;;;;;;;6.00;99.69;100703.50;5013059;28;19926;-85
2021/03/15 10:06:05;;;;;;;;;;;;;;;5.98;100.00;100712.59;4998814;28;20295;-81
2021/03/15 10:08:30;;;;;;;;;;;;;;;6.05;100.00;100706.59;5011858;28;20350;-85
2021/03/15 10:10:57;;;;;;;;;;;;;;;6.07;99.25;100715.31;5016199;28;19926;-81
2021/03/15 10:13:22;;;;;;;;;;;;;;;6.15;98.21;100706.59;5008028;28;20007;-83
2021/03/15 10:15:47;;;;;;;;;;;;;;;6.22;96.55;100704.25;5001963;28;20009;-85
2021/03/15 10:18:20;;;;;;;;;;;;;;;6.26;96.19;100692.31;4998838;28;19930;-85
2021/03/15 10:20:45;;;;;;;;;;;;;;;6.29;94.88;100697.38;5018324;28;20353;-84
2021/03/15 10:23:14;;;;;;;;;;;;;;;6.34;94.84;100705.81;5027430;28;19921;-81
2021/03/15 10:25:39;;;;;;;;;;;;;;;6.33;94.31;100699.63;5027109;28;20338;-82
2021/03/15 10:28:05;;;;;;;;;;;;;;;6.40;95.13;100707.06;5024283;28;19921;-86
2021/03/15 10:30:31;;;;;;;;;;;;;;;6.43;95.04;100698.78;5018704;28;19925;-85
2021/03/15 10:32:57;;;;;;;;;;;;;;;6.44;94.20;100722.63;5008067;28;20300;-84
2021/03/15 10:35:23;;;;;;;;;;;;;;;6.40;94.92;100710.56;5025344;28;19921;-84
2021/03/15 10:37:50;;;;;;;;;;;;;;;6.38;96.78;100717.84;5013780;28;19929;-83
2021/03/15 10:40:17;;;;;;;;;;;;;;;6.24;96.74;100721.78;5005683;28;19972;-85
2021/03/15 10:42:42;;;;;;;;;;;;;;;6.13;98.00;100705.94;5007660;28;20377;-84
2021/03/15 10:45:09;;;;;;;;;;;;;;;6.08;98.64;100727.63;5022746;28;19929;-82
2021/03/15 10:47:35;;;;;;;;;;;;;;;6.12;98.63;100716.69;5006598;28;20029;-84
2021/03/15 10:50:01;;;;;;;;;;;;;;;6.14;98.29;100730.75;5000241;28;19968;-84
2021/03/15 10:52:27;;;;;;;;;;;;;;;6.24;99.64;100726.25;5005354;28;19922;-84
2021/03/15 10:54:52;;;;;;;;;;;;;;;6.30;99.06;100715.03;4998811;28;20086;-81
2021/03/15 10:57:20;;;;;;;;;;;;;;;6.28;98.97;100711.69;5002459;28;20031;-87
2021/03/15 10:59:46;;;;;;;;;;;;;;;6.23;100.00;100738.75;4991506;28;19961;-83
2021/03/15 11:02:38;;;;;;;;;;;;;;;6.16;100.00;100742.09;5005006;28;19998;-85
2021/03/15 11:05:03;;;;;;;;;;;;;;;5.97;100.00;100726.91;5013877;28;20007;-86
2021/03/15 11:07:36;;;;;;;;;;;;;;;5.87;100.00;100743.69;4987463;28;20000;-85
2021/03/15 11:10:03;;;;;;;;;;;;;;;5.84;100.00;100735.97;4996600;28;19925;-84
2021/03/15 11:12:29;;;;;;;;;;;;;;;5.89;100.00;100727.53;5010532;28;19975;-82
2021/03/15 11:15:07;;;;;;;;;;;;;;;6.01;100.00;100741.63;5017248;28;19949;-85
2021/03/15 11:17:32;;;;;;;;;;;;;;;6.10;100.00;100731.03;5017101;28;20136;-86
2021/03/15 11:19:57;;;;;;;;;;;;;;;6.27;100.00;100731.31;4985986;28;20028;-84
2021/03/15 11:22:23;;;;;;;;;;;;;;;6.40;100.00;100731.91;5002580;28;20299;-82
2021/03/15 11:24:48;;;;;;;;;;;;;;;6.46;100.00;100731.34;5004872;28;19921;-84
2021/03/15 11:27:14;;;;;;;;;;;;;;;6.57;100.00;100727.69;5035303;28;20395;-82
2021/03/15 11:29:40;;;;;;;;;;;;;;;6.67;99.73;100735.69;5012773;28;19984;-85
2021/03/15 11:32:10;;;;;;;;;;;;;;;6.69;99.60;100731.91;5022529;28;19986;-81
2021/03/15 11:34:44;;;;;;;;;;;;;;;6.67;100.00;100733.88;5024162;28;19939;-83
2021/03/15 11:37:10;;;;;;;;;;;;;;;6.64;100.00;100743.97;5028361;28;20372;-85
2021/03/15 11:39:38;;;;;;;;;;;;;;;6.38;100.00;100743.69;5030804;28;20003;-85
2021/03/15 11:42:04;;;;;;;;;;;;;;;6.19;99.83;100761.31;5034849;28;19956;-85
2021/03/15 11:44:29;;;;;;;;;;;;;;;6.06;100.00;100761.56;5029305;28;19964;-84
2021/03/15 11:46:54;;;;;;;;;;;;;;;5.84;100.00;100746.63;5025269;28;19956;-82
2021/03/15 11:49:21;;;;;;;;;;;;;;;5.91;100.00;100757.56;5028087;28;20324;-86
2021/03/15 11:51:53;;;;;;;;;;;;;;;6.09;100.00;100745.28;5024010;28;20346;-83
2021/03/15 11:54:18;;;;;;;;;;;;;;;6.25;100.00;100744.78;5028773;28;19956;-84
2021/03/15 11:56:43;;;;;;;;;;;;;;;6.41;100.00;100740.72;5017453;28;19966;-85
2021/03/15 11:59:09;;;;;;;;;;;;;;;6.52;100.00;100740.59;5037965;28;19921;-84
2021/03/15 12:01:34;;;;;;;;;;;;;;;6.54;100.00;100742.16;5028489;28;20284;-84
2021/03/15 12:03:59;;;;;;;;;;;;;;;6.50;100.00;100743.44;4997479;28;19929;-84
2021/03/15 12:06:25;;;;;;;;;;;;;;;6.51;100.00;100763.75;5001487;28;20407;-82
2021/03/15 12:08:51;;;;;;;;;;;;;;;6.62;100.00;100751.25;4989682;28;19926;-83
2021/03/15 12:11:16;;;;;;;;;;;;;;;6.61;100.00;100755.75;5001050;28;20304;-83
2021/03/15 12:13:41;;;;;;;;;;;;;;;6.61;97.62;100761.09;4996887;28;20332;-85
2021/03/15 12:16:07;;;;;;;;;;;;;;;6.66;97.22;100758.03;5013590;28;19917;-84
2021/03/15 12:18:32;;;;;;;;;;;;;;;6.66;96.74;100761.53;4994604;28;20307;-83
2021/03/15 12:20:58;;;;;;;;;;;;;;;6.63;96.94;100772.47;5041206;28;19925;-86
2021/03/15 12:23:24;;;;;;;;;;;;;;;6.53;97.44;100769.81;4991615;28;19926;-85
2021/03/15 12:25:49;;;;;;;;;;;;;;;6.45;97.67;100766.16;5013977;28;20081;-85
2021/03/15 12:28:16;;;;;;;;;;;;;;;6.54;98.26;100760.81;5026651;28;19999;-82
2021/03/15 12:30:41;;;;;;;;;;;;;;;6.82;98.57;100762.78;5025033;28;19925;-85
2021/03/15 12:33:08;;;;;;;;;;;;;;;6.98;95.86;100761.22;5044022;28;20343;-83
2021/03/15 12:35:33;;;;;;;;;;;;;;;7.03;94.02;100750.16;5022558;28;20380;-85
2021/03/15 12:37:58;;;;;;;;;;;;;;;7.11;92.12;100757.44;5025888;28;19995;-84
2021/03/15 12:40:24;;;;;;;;;;;;;;;7.15;93.34;100754.34;5022198;28;19918;-87